createdAt,value
2019-05-18T00:01:48.150Z,3.40
2019-05-18T00:04:16.769Z,3.60
2019-05-18T00:06:43.737Z,3.53
2019-05-18T00:09:10.695Z,3.20
2019-05-18T00:11:37.629Z,3.43
2019-05-18T00:14:04.614Z,3.50
2019-05-18T00:16:31.617Z,3.80
2019-05-18T00:18:58.572Z,4.00
2019-05-18T00:21:25.517Z,4.30
2019-05-18T00:23:52.485Z,4.00
2019-05-18T00:26:19.416Z,3.90
2019-05-18T00:28:46.461Z,4.30
2019-05-18T00:31:13.410Z,4.07
2019-05-18T00:33:40.341Z,4.60
2019-05-18T00:36:07.311Z,4.50
2019-05-18T00:38:34.250Z,4.73
2019-05-18T00:41:01.234Z,5.43
2019-05-18T00:43:28.199Z,4.80
2019-05-18T00:45:55.130Z,5.17
2019-05-18T00:48:22.081Z,5.30
2019-05-18T00:50:49.020Z,4.70
2019-05-18T00:53:15.965Z,5.20
2019-05-18T00:55:42.913Z,5.60
2019-05-18T00:58:09.883Z,5.20
2019-05-18T01:00:36.822Z,5.00
2019-05-18T01:03:03.779Z,5.13
2019-05-18T01:05:31.244Z,5.23
2019-05-18T01:07:58.177Z,5.00
2019-05-18T01:10:25.120Z,5.47
2019-05-18T01:12:52.091Z,5.37
2019-05-18T01:15:19.044Z,6.00
2019-05-18T01:17:56.886Z,5.13
2019-05-18T01:20:12.977Z,5.40
2019-05-18T01:22:39.922Z,5.20
2019-05-18T01:25:06.880Z,5.40
2019-05-18T01:27:33.852Z,5.60
2019-05-18T01:30:00.809Z,5.17
2019-05-18T01:32:28.142Z,5.53
2019-05-18T01:34:55.096Z,5.53
2019-05-18T01:37:22.042Z,5.50
2019-05-18T01:39:49.001Z,5.80
2019-05-18T01:42:15.969Z,5.20
2019-05-18T01:44:42.946Z,5.80
2019-05-18T01:47:09.890Z,5.63
2019-05-18T01:49:36.832Z,6.07
2019-05-18T01:52:04.025Z,5.50
2019-05-18T01:54:30.822Z,5.77
2019-05-18T01:56:57.796Z,5.87
2019-05-18T01:59:24.731Z,5.33
2019-05-18T02:01:51.697Z,5.27
2019-05-18T02:04:18.678Z,5.53
2019-05-18T02:06:47.395Z,5.40
2019-05-18T02:09:14.341Z,5.93
2019-05-18T02:11:41.297Z,6.00
2019-05-18T02:14:08.241Z,5.87
2019-05-18T02:16:41.514Z,5.77
2019-05-18T02:19:08.485Z,5.90
2019-05-18T02:21:35.417Z,6.27
2019-05-18T02:24:02.427Z,6.53
2019-05-18T02:26:29.351Z,5.93
2019-05-18T02:28:56.299Z,6.23
2019-05-18T02:31:23.286Z,6.50
2019-05-18T02:33:50.214Z,6.90
2019-05-18T02:36:17.167Z,6.70
2019-05-18T02:38:44.122Z,6.60
2019-05-18T02:41:11.389Z,7.00
2019-05-18T02:43:38.330Z,7.03
2019-05-18T02:46:05.303Z,7.07
2019-05-18T02:48:47.813Z,7.83
2019-05-18T02:50:59.198Z,7.93
2019-05-18T02:53:26.156Z,7.83
2019-05-18T02:55:53.116Z,7.83
2019-05-18T02:58:20.031Z,8.17
2019-05-18T03:00:46.965Z,7.30
2019-05-18T03:03:13.998Z,7.63
2019-05-18T03:05:41.133Z,7.03
2019-05-18T03:08:09.927Z,6.70
2019-05-18T03:10:36.905Z,6.00
2019-05-18T03:13:04.506Z,6.33
2019-05-18T03:15:31.563Z,6.27
2019-05-18T03:17:58.506Z,7.33
2019-05-18T03:20:25.442Z,8.13
2019-05-18T03:22:52.405Z,7.00
2019-05-18T03:25:19.361Z,6.77
2019-05-18T03:27:46.334Z,6.93
2019-05-18T03:30:13.330Z,6.63
2019-05-18T03:32:40.274Z,7.10
2019-05-18T03:35:07.220Z,7.00
2019-05-18T03:37:34.173Z,7.40
2019-05-18T03:40:01.125Z,7.23
2019-05-18T03:42:28.094Z,7.40
2019-05-18T03:44:55.017Z,7.00
2019-05-18T03:47:21.948Z,7.43
2019-05-18T03:49:48.900Z,8.13
2019-05-18T03:52:15.860Z,7.77
2019-05-18T03:54:42.792Z,7.27
2019-05-18T03:57:09.742Z,7.60
2019-05-18T03:59:36.690Z,7.43
2019-05-18T04:02:03.623Z,6.83
2019-05-18T04:04:30.545Z,6.73
2019-05-18T04:06:57.525Z,7.20
2019-05-18T04:09:24.687Z,7.33
2019-05-18T04:11:51.648Z,7.03
2019-05-18T04:14:18.579Z,7.40
2019-05-18T04:16:45.521Z,7.47
2019-05-18T04:19:12.460Z,7.20
2019-05-18T04:21:39.429Z,6.73
2019-05-18T04:24:06.368Z,7.30
2019-05-18T04:26:33.304Z,7.27
2019-05-18T04:29:00.253Z,7.67
2019-05-18T04:31:27.169Z,7.80
2019-05-18T04:33:54.097Z,6.70
2019-05-18T04:36:21.047Z,7.33
2019-05-18T04:38:47.966Z,7.60
2019-05-18T04:41:14.914Z,7.50
2019-05-18T04:43:41.902Z,7.80
2019-05-18T04:46:08.872Z,7.50
2019-05-18T04:48:35.817Z,6.80
2019-05-18T04:51:02.936Z,6.23
2019-05-18T04:53:29.851Z,5.97
2019-05-18T04:55:57.637Z,6.50
2019-05-18T04:58:24.583Z,6.23
2019-05-18T05:00:51.524Z,6.40
2019-05-18T05:03:18.460Z,6.00
2019-05-18T05:05:45.405Z,6.90
2019-05-18T05:08:12.385Z,6.33
2019-05-18T05:10:39.727Z,6.20
2019-05-18T05:13:06.686Z,6.03
2019-05-18T05:15:33.592Z,6.70
2019-05-18T05:18:00.701Z,5.90
2019-05-18T05:20:27.615Z,6.63
2019-05-18T05:22:54.537Z,7.50
2019-05-18T05:25:21.488Z,7.00
2019-05-18T05:27:48.450Z,7.20
2019-05-18T05:30:15.419Z,7.17
2019-05-18T05:32:42.356Z,6.67
2019-05-18T05:35:09.317Z,7.80
2019-05-18T05:37:36.267Z,8.20
2019-05-18T05:40:04.424Z,8.00
2019-05-18T05:42:31.629Z,7.63
2019-05-18T05:44:58.551Z,7.70
2019-05-18T05:47:25.472Z,7.33
2019-05-18T05:49:52.437Z,7.77
2019-05-18T05:52:19.359Z,7.87
2019-05-18T05:54:46.303Z,8.00
2019-05-18T05:57:13.267Z,7.40
2019-05-18T05:59:40.187Z,7.40
2019-05-18T06:02:07.140Z,7.27
2019-05-18T06:04:34.084Z,7.13
2019-05-18T06:07:01.003Z,7.57
2019-05-18T06:09:27.935Z,7.53
2019-05-18T06:11:56.265Z,7.67
2019-05-18T06:14:23.133Z,7.73
2019-05-18T06:16:50.041Z,7.50
2019-05-18T06:19:16.997Z,7.63
2019-05-18T06:21:43.931Z,7.57
2019-05-18T06:24:10.877Z,7.23
2019-05-18T06:26:37.821Z,6.07
2019-05-18T06:29:04.762Z,6.03
2019-05-18T06:31:31.689Z,6.30
2019-05-18T06:33:58.632Z,5.90
2019-05-18T06:36:25.558Z,6.13
2019-05-18T06:38:52.497Z,6.43
2019-05-18T06:41:19.513Z,6.30
2019-05-18T06:43:46.443Z,5.97
2019-05-18T06:46:13.368Z,6.17
2019-05-18T06:48:40.341Z,6.27
2019-05-18T06:51:07.895Z,6.17
2019-05-18T06:53:34.540Z,6.00
2019-05-18T06:56:01.498Z,6.20
2019-05-18T06:58:28.439Z,5.83
2019-05-18T07:00:55.363Z,5.90
2019-05-18T07:03:22.378Z,6.00
2019-05-18T07:05:49.288Z,5.53
2019-05-18T07:08:16.225Z,5.07
2019-05-18T07:10:43.177Z,4.90
2019-05-18T07:13:12.008Z,4.80
2019-05-18T07:15:38.956Z,4.70
2019-05-18T07:18:05.886Z,6.60
2019-05-18T07:20:32.825Z,7.93
2019-05-18T07:22:59.767Z,5.20
2019-05-18T07:25:26.747Z,8.00
2019-05-18T07:27:53.674Z,6.90
2019-05-18T07:30:20.609Z,6.33
2019-05-18T07:32:47.542Z,12.03
2019-05-18T07:35:14.482Z,6.33
2019-05-18T07:37:41.468Z,5.97
2019-05-18T07:40:08.417Z,4.83
2019-05-18T07:42:35.346Z,4.90
2019-05-18T07:45:02.370Z,6.03
2019-05-18T07:47:29.285Z,6.40
2019-05-18T07:49:56.215Z,5.10
2019-05-18T07:52:23.143Z,5.13
2019-05-18T07:54:50.135Z,5.00
2019-05-18T07:57:17.079Z,5.57
2019-05-18T07:59:43.987Z,5.40
2019-05-18T08:02:10.940Z,5.80
2019-05-18T08:04:39.796Z,5.80
2019-05-18T08:07:04.833Z,5.30
2019-05-18T08:09:31.809Z,5.57
2019-05-18T08:11:58.762Z,5.30
2019-05-18T08:14:27.226Z,5.43
2019-05-18T08:16:54.180Z,5.13
2019-05-18T08:19:21.104Z,6.40
2019-05-18T08:21:53.111Z,5.97
2019-05-18T08:24:14.995Z,5.50
2019-05-18T08:26:41.922Z,5.53
2019-05-18T08:29:08.864Z,5.53
2019-05-18T08:31:35.837Z,5.57
2019-05-18T08:34:02.749Z,5.10
2019-05-18T08:36:29.729Z,5.83
2019-05-18T08:38:56.664Z,5.20
2019-05-18T08:41:23.590Z,5.63
2019-05-18T08:43:50.509Z,4.90
2019-05-18T08:46:17.453Z,5.00
2019-05-18T08:48:44.398Z,5.27
2019-05-18T08:51:11.331Z,4.97
2019-05-18T08:53:38.268Z,4.63
2019-05-18T08:56:05.205Z,4.73
2019-05-18T08:58:32.119Z,5.23
2019-05-18T09:00:59.071Z,4.80
2019-05-18T09:03:26.028Z,5.00
2019-05-18T09:05:52.964Z,5.03
2019-05-18T09:08:19.915Z,5.00
2019-05-18T09:10:46.860Z,4.90
2019-05-18T09:13:13.768Z,5.80
2019-05-18T09:15:41.117Z,5.37
2019-05-18T09:18:08.048Z,6.57
2019-05-18T09:20:35.029Z,7.43
2019-05-18T09:23:01.956Z,5.00
2019-05-18T09:25:28.895Z,5.60
2019-05-18T09:27:55.817Z,7.90
2019-05-18T09:30:22.785Z,6.40
2019-05-18T09:32:49.721Z,4.93
2019-05-18T09:35:16.689Z,6.60
2019-05-18T09:37:43.653Z,7.43
2019-05-18T09:40:10.640Z,5.00
2019-05-18T09:42:37.575Z,5.27
2019-05-18T09:45:04.703Z,5.03
2019-05-18T09:47:31.629Z,6.40
2019-05-18T09:49:58.580Z,6.20
2019-05-18T09:52:43.478Z,5.30
2019-05-18T09:54:52.449Z,4.70
2019-05-18T09:57:19.409Z,4.50
2019-05-18T09:59:46.337Z,4.30
2019-05-18T10:02:13.281Z,7.10
2019-05-18T10:04:40.241Z,8.20
2019-05-18T10:07:07.236Z,5.43
2019-05-18T10:09:39.210Z,5.37
2019-05-18T10:12:01.160Z,5.40
2019-05-18T10:14:28.104Z,4.80
2019-05-18T10:16:56.434Z,4.93
2019-05-18T10:19:23.417Z,4.83
2019-05-18T10:21:50.532Z,4.83
2019-05-18T10:24:17.462Z,4.53
2019-05-18T10:26:44.403Z,4.97
2019-05-18T10:29:11.357Z,4.30
2019-05-18T10:31:38.304Z,4.80
2019-05-18T10:34:05.281Z,5.10
2019-05-18T10:36:32.235Z,4.97
2019-05-18T10:38:59.140Z,5.13
2019-05-18T10:41:26.162Z,4.47
2019-05-18T10:43:53.125Z,4.20
2019-05-18T10:46:20.134Z,4.40
2019-05-18T10:48:47.092Z,4.47
2019-05-18T10:51:14.080Z,4.57
2019-05-18T10:53:40.999Z,4.50
2019-05-18T10:56:08.010Z,4.23
2019-05-18T10:58:35.112Z,4.17
2019-05-18T11:01:02.029Z,4.63
2019-05-18T11:03:28.995Z,4.20
2019-05-18T11:05:55.957Z,3.93
2019-05-18T11:08:22.882Z,4.00
2019-05-18T11:10:49.893Z,4.63
2019-05-18T11:13:17.462Z,4.50
2019-05-18T11:15:43.799Z,4.30
2019-05-18T11:18:12.284Z,4.20
2019-05-18T11:20:39.275Z,4.00
2019-05-18T11:23:06.200Z,3.83
2019-05-18T11:25:33.156Z,4.20
2019-05-18T11:28:00.151Z,4.47
2019-05-18T11:30:27.098Z,4.03
2019-05-18T11:32:54.020Z,3.70
2019-05-18T11:35:20.960Z,4.13
2019-05-18T11:37:47.926Z,4.40
2019-05-18T11:40:14.921Z,4.30
2019-05-18T11:42:41.877Z,3.30
2019-05-18T11:45:08.848Z,3.90
2019-05-18T11:47:35.809Z,3.90
2019-05-18T11:50:03.097Z,3.53
2019-05-18T11:52:30.182Z,3.53
2019-05-18T11:54:57.016Z,3.60
2019-05-18T11:57:23.970Z,3.50
2019-05-18T11:59:50.924Z,3.47
2019-05-18T12:02:17.871Z,2.93
2019-05-18T12:04:44.890Z,3.50
2019-05-18T12:07:11.840Z,4.27
2019-05-18T12:09:38.787Z,7.60
2019-05-18T12:12:05.777Z,3.30
2019-05-18T12:14:32.698Z,3.23
2019-05-18T12:16:59.621Z,3.47
2019-05-18T12:19:27.170Z,3.50
2019-05-18T12:21:54.153Z,3.07
2019-05-18T12:24:21.121Z,4.10
2019-05-18T12:26:48.028Z,3.40
2019-05-18T12:29:14.985Z,3.27
2019-05-18T12:31:41.905Z,3.87
2019-05-18T12:34:08.884Z,4.20
2019-05-18T12:36:35.830Z,3.17
2019-05-18T12:39:03.688Z,3.30
2019-05-18T12:41:30.645Z,3.10
2019-05-18T12:43:57.678Z,3.70
2019-05-18T12:46:24.652Z,3.60
2019-05-18T12:48:51.592Z,3.60
2019-05-18T12:51:18.517Z,3.50
2019-05-18T12:53:45.489Z,3.40
2019-05-18T12:56:12.448Z,3.70
2019-05-18T12:58:39.409Z,4.47
2019-05-18T13:01:06.360Z,3.30
2019-05-18T13:03:33.283Z,2.20
2019-05-18T13:06:00.247Z,2.10
2019-05-18T13:08:27.169Z,2.50
2019-05-18T13:10:54.674Z,2.30
2019-05-18T13:13:21.494Z,2.20
2019-05-18T13:15:48.417Z,2.10
2019-05-18T13:18:15.380Z,2.30
2019-05-18T13:20:42.630Z,2.03
2019-05-18T13:23:09.552Z,3.27
2019-05-18T13:25:36.499Z,3.30
2019-05-18T13:28:03.435Z,2.60
2019-05-18T13:30:30.365Z,2.30
2019-05-18T13:32:57.326Z,2.23
2019-05-18T13:35:24.251Z,2.40
2019-05-18T13:37:51.224Z,2.40
2019-05-18T13:40:18.216Z,5.00
2019-05-18T13:42:45.199Z,3.47
2019-05-18T13:45:12.173Z,3.07
2019-05-18T13:47:39.144Z,2.43
2019-05-18T13:50:06.124Z,2.30
2019-05-18T13:52:33.081Z,2.00
2019-05-18T13:55:04.395Z,2.00
2019-05-18T13:57:27.156Z,2.00
2019-05-18T13:59:54.090Z,1.47
2019-05-18T14:02:21.061Z,1.60
2019-05-18T14:04:48.033Z,2.00
2019-05-18T14:07:14.955Z,1.63
2019-05-18T14:09:41.898Z,1.80
2019-05-18T14:12:08.868Z,1.87
2019-05-18T14:14:35.815Z,2.00
2019-05-18T14:17:03.238Z,1.90
2019-05-18T14:19:30.348Z,2.03
2019-05-18T14:21:58.557Z,2.20
2019-05-18T14:24:25.753Z,2.10
2019-05-18T14:26:52.696Z,2.30
2019-05-18T14:29:19.690Z,2.13
2019-05-18T14:31:46.672Z,2.00
2019-05-18T14:34:13.630Z,2.00
2019-05-18T14:36:40.564Z,1.80
2019-05-18T14:39:07.529Z,2.20
2019-05-18T14:41:34.453Z,2.20
2019-05-18T14:44:01.397Z,2.00
2019-05-18T14:46:28.394Z,1.83
2019-05-18T14:48:55.314Z,1.80
2019-05-18T14:51:22.287Z,1.80
2019-05-18T14:53:49.251Z,2.20
2019-05-18T14:56:16.249Z,2.40
2019-05-18T14:58:43.192Z,2.47
2019-05-18T15:01:10.159Z,2.30
2019-05-18T15:03:37.098Z,2.13
2019-05-18T15:06:04.024Z,2.30
2019-05-18T15:08:30.968Z,12.00
2019-05-18T15:10:57.912Z,3.00
2019-05-18T15:13:24.980Z,2.00
2019-05-18T15:15:51.915Z,2.50
2019-05-18T15:18:18.851Z,2.20
2019-05-18T15:20:45.787Z,2.20
2019-05-18T15:23:14.222Z,1.70
2019-05-18T15:25:50.098Z,2.07
2019-05-18T15:28:08.088Z,2.20
2019-05-18T15:30:35.080Z,2.07
2019-05-18T15:33:02.001Z,2.07
2019-05-18T15:35:28.968Z,1.90
2019-05-18T15:37:56.220Z,1.90
2019-05-18T15:40:23.110Z,2.10
2019-05-18T15:42:50.022Z,2.60
2019-05-18T15:45:16.984Z,12.13
2019-05-18T15:47:43.920Z,2.20
2019-05-18T15:50:10.903Z,2.10
2019-05-18T15:52:37.853Z,2.47
2019-05-18T15:55:04.849Z,2.40
2019-05-18T15:57:31.754Z,3.87
2019-05-18T15:59:58.705Z,1.77
2019-05-18T16:02:25.638Z,1.60
2019-05-18T16:04:52.579Z,1.60
2019-05-18T16:07:19.537Z,1.63
2019-05-18T16:09:46.477Z,1.70
2019-05-18T16:12:13.409Z,2.10
2019-05-18T16:14:40.343Z,1.93
2019-05-18T16:17:07.264Z,1.87
2019-05-18T16:19:34.208Z,1.70
2019-05-18T16:22:01.162Z,1.93
2019-05-18T16:24:28.702Z,2.13
2019-05-18T16:26:55.628Z,2.20
2019-05-18T16:29:22.581Z,2.50
2019-05-18T16:31:49.524Z,1.90
2019-05-18T16:34:16.477Z,1.77
2019-05-18T16:36:43.448Z,2.20
2019-05-18T16:39:10.364Z,2.50
2019-05-18T16:41:37.338Z,1.97
2019-05-18T16:44:04.284Z,2.00
2019-05-18T16:46:31.224Z,1.50
2019-05-18T16:48:58.174Z,2.10
2019-05-18T16:51:25.173Z,1.57
2019-05-18T16:53:52.100Z,1.70
2019-05-18T16:56:19.013Z,1.90
2019-05-18T16:58:45.968Z,3.17
2019-05-18T17:01:13.038Z,2.10
2019-05-18T17:03:39.961Z,2.00
2019-05-18T17:06:06.901Z,1.90
2019-05-18T17:08:33.948Z,1.43
2019-05-18T17:11:00.908Z,1.77
2019-05-18T17:13:27.857Z,1.83
2019-05-18T17:15:54.782Z,1.97
2019-05-18T17:18:21.724Z,1.63
2019-05-18T17:20:48.694Z,1.70
2019-05-18T17:23:15.617Z,1.70
2019-05-18T17:25:42.794Z,1.93
2019-05-18T17:28:09.795Z,1.90
2019-05-18T17:30:36.765Z,1.67
2019-05-18T17:33:03.732Z,1.57
2019-05-18T17:35:30.677Z,1.73
2019-05-18T17:37:57.603Z,1.70
2019-05-18T17:40:24.549Z,1.50
2019-05-18T17:42:51.480Z,1.60
2019-05-18T17:45:18.413Z,1.67
2019-05-18T17:47:45.347Z,1.50
2019-05-18T17:50:12.365Z,1.63
2019-05-18T17:52:39.310Z,1.60
2019-05-18T17:55:06.400Z,1.70
2019-05-18T17:57:33.341Z,1.80
2019-05-18T18:00:00.283Z,2.00
2019-05-18T18:02:27.261Z,1.70
2019-05-18T18:04:54.383Z,2.30
2019-05-18T18:07:21.141Z,2.10
2019-05-18T18:09:48.084Z,2.03
2019-05-18T18:12:15.103Z,2.37
2019-05-18T18:14:42.033Z,2.57
2019-05-18T18:17:08.994Z,2.60
2019-05-18T18:19:35.976Z,2.30
2019-05-18T18:22:02.936Z,2.23
2019-05-18T18:24:29.929Z,2.40
2019-05-18T18:26:57.349Z,2.17
2019-05-18T18:29:24.290Z,1.93
2019-05-18T18:31:51.229Z,2.47
2019-05-18T18:34:18.189Z,2.30
2019-05-18T18:36:45.129Z,2.47
2019-05-18T18:39:12.032Z,2.43
2019-05-18T18:41:39.059Z,2.47
2019-05-18T18:44:06.147Z,2.57
2019-05-18T18:46:33.160Z,2.60
2019-05-18T18:49:02.211Z,2.70
2019-05-18T18:51:29.133Z,2.60
2019-05-18T18:53:56.128Z,2.70
2019-05-18T18:56:23.378Z,2.63
2019-05-18T18:58:50.364Z,2.60
2019-05-18T19:01:17.281Z,2.67
2019-05-18T19:06:18.818Z,2.63
2019-05-18T19:08:45.749Z,2.43
2019-05-18T19:11:12.682Z,2.50
2019-05-18T19:13:39.759Z,2.43
2019-05-18T19:16:06.654Z,2.50
2019-05-18T19:18:33.605Z,2.27
2019-05-18T19:21:00.529Z,2.50
2019-05-18T19:23:27.460Z,2.63
2019-05-18T19:25:54.434Z,2.60
2019-05-18T19:28:21.626Z,2.70
2019-05-18T19:30:48.628Z,2.57
2019-05-18T19:33:15.544Z,2.50
2019-05-18T19:35:42.518Z,3.27
2019-05-18T19:38:09.463Z,3.20
2019-05-18T19:40:36.388Z,2.83
2019-05-18T19:43:03.389Z,3.10
2019-05-18T19:45:30.337Z,3.10
2019-05-18T19:47:57.280Z,3.10
2019-05-18T19:50:24.238Z,2.90
2019-05-18T19:52:51.217Z,3.07
2019-05-18T19:55:18.137Z,2.93
2019-05-18T19:57:45.109Z,3.10
2019-05-18T20:00:12.120Z,2.90
2019-05-18T20:02:39.008Z,2.80
2019-05-18T20:05:08.415Z,3.00
2019-05-18T20:07:33.009Z,2.97
2019-05-18T20:09:59.952Z,2.63
2019-05-18T20:12:26.876Z,2.80
2019-05-18T20:14:53.847Z,2.90
2019-05-18T20:17:20.785Z,2.90
2019-05-18T20:19:47.744Z,2.83
2019-05-18T20:22:14.678Z,3.30
2019-05-18T20:24:41.618Z,3.20
2019-05-18T20:27:08.585Z,3.27
2019-05-18T20:29:37.766Z,3.23
2019-05-18T20:32:04.732Z,3.50
2019-05-18T20:34:31.673Z,3.80
2019-05-18T20:36:58.612Z,3.47
2019-05-18T20:39:25.536Z,3.40
2019-05-18T20:41:52.517Z,3.43
2019-05-18T20:44:19.448Z,3.50
2019-05-18T20:46:46.389Z,3.53
2019-05-18T20:49:13.334Z,3.90
2019-05-18T20:51:40.281Z,3.40
2019-05-18T20:54:07.204Z,3.70
2019-05-18T20:56:34.141Z,3.63
2019-05-18T20:59:01.083Z,3.23
2019-05-18T21:01:28.025Z,3.40
2019-05-18T21:03:54.977Z,3.40
2019-05-18T21:06:21.954Z,3.30
2019-05-18T21:08:48.900Z,3.10
2019-05-18T21:11:15.830Z,2.80
2019-05-18T21:13:42.784Z,3.30
2019-05-18T21:16:09.716Z,2.50
2019-05-18T21:18:36.666Z,2.63
2019-05-18T21:21:03.638Z,2.70
2019-05-18T21:23:30.574Z,2.70
2019-05-18T21:25:57.519Z,2.73
2019-05-18T21:28:24.464Z,2.80
2019-05-18T21:30:52.088Z,2.47
2019-05-18T21:33:19.015Z,2.60
2019-05-18T21:35:45.952Z,2.80
2019-05-18T21:38:12.881Z,2.60
2019-05-18T21:40:39.848Z,2.37
2019-05-18T21:43:06.813Z,2.60
2019-05-18T21:45:33.865Z,2.40
2019-05-18T21:48:00.812Z,2.50
2019-05-18T21:50:27.790Z,2.30
2019-05-18T21:52:54.732Z,3.03
2019-05-18T21:55:21.648Z,14.23
2019-05-18T21:57:48.603Z,3.73
2019-05-18T22:00:15.556Z,2.57
2019-05-18T22:02:42.544Z,2.50
2019-05-18T22:05:09.491Z,2.30
2019-05-18T22:07:36.447Z,2.40
2019-05-18T22:10:04.257Z,2.23
2019-05-18T22:12:31.199Z,2.60
2019-05-18T22:14:58.135Z,2.67
2019-05-18T22:17:25.100Z,3.00
2019-05-18T22:19:52.052Z,2.97
2019-05-18T22:22:18.989Z,2.77
2019-05-18T22:24:45.929Z,2.60
2019-05-18T22:27:12.885Z,2.60
2019-05-18T22:29:39.806Z,2.90
2019-05-18T22:32:07.992Z,3.60
2019-05-18T22:34:34.929Z,3.43
2019-05-18T22:37:01.865Z,3.37
2019-05-18T22:39:28.791Z,3.77
2019-05-18T22:41:55.768Z,3.50
2019-05-18T22:44:22.692Z,3.57
2019-05-18T22:46:49.639Z,3.50
2019-05-18T22:49:16.600Z,3.60
2019-05-18T22:51:43.618Z,3.83
2019-05-18T22:54:10.742Z,3.53
2019-05-18T22:56:37.709Z,4.30
2019-05-18T22:59:04.635Z,3.83
2019-05-18T23:01:31.576Z,4.30
2019-05-18T23:03:58.524Z,4.00
2019-05-18T23:06:25.493Z,4.33
2019-05-18T23:08:52.442Z,3.97
2019-05-18T23:11:19.422Z,4.70
2019-05-18T23:13:46.390Z,28.47
2019-05-18T23:16:13.311Z,24.93
2019-05-18T23:18:54.307Z,5.60
2019-05-18T23:21:07.282Z,4.73
2019-05-18T23:23:34.253Z,4.33
2019-05-18T23:26:01.209Z,4.20
2019-05-18T23:28:28.135Z,4.43
2019-05-18T23:30:55.065Z,4.00
2019-05-18T23:33:22.153Z,4.27
2019-05-18T23:35:49.080Z,3.83
2019-05-18T23:38:16.010Z,4.37
2019-05-18T23:40:42.976Z,4.30
2019-05-18T23:43:09.907Z,4.50
2019-05-18T23:45:36.840Z,4.37
2019-05-18T23:48:03.813Z,4.23
2019-05-18T23:50:30.731Z,4.07
2019-05-18T23:52:57.672Z,4.70
2019-05-18T23:55:24.604Z,4.47
2019-05-18T23:57:51.572Z,4.73
